sensor_id;sensor_type;location;lat;lon;timestamp;P1;durP1;ratioP1;P2;durP2;ratioP2
72924;SDS011;61070;50.794;7.054;2023-03-16T00:00:13;10.35;;;6.05;;
72924;SDS011;61070;50.794;7.054;2023-03-16T00:02:43;11.13;;;4.90;;
72924;SDS011;61070;50.794;7.054;2023-03-16T00:05:09;12.13;;;5.13;;
72924;SDS011;61070;50.794;7.054;2023-03-16T00:07:36;11.43;;;5.40;;
72924;SDS011;61070;50.794;7.054;2023-03-16T00:10:02;11.50;;;5.03;;
72924;SDS011;61070;50.794;7.054;2023-03-16T00:12:27;12.05;;;4.93;;
72924;SDS011;61070;50.794;7.054;2023-03-16T00:14:53;10.52;;;5.03;;
72924;SDS011;61070;50.794;7.054;2023-03-16T00:17:19;11.50;;;5.28;;
72924;SDS011;61070;50.794;7.054;2023-03-16T00:19:46;10.82;;;5.70;;
72924;SDS011;61070;50.794;7.054;2023-03-16T00:22:15;12.70;;;5.85;;
72924;SDS011;61070;50.794;7.054;2023-03-16T00:24:41;11.10;;;5.80;;
72924;SDS011;61070;50.794;7.054;2023-03-16T00:27:10;18.02;;;6.15;;
72924;SDS011;61070;50.794;7.054;2023-03-16T00:29:42;14.57;;;6.20;;
72924;SDS011;61070;50.794;7.054;2023-03-16T00:32:12;11.05;;;6.25;;
72924;SDS011;61070;50.794;7.054;2023-03-16T00:34:38;11.23;;;5.78;;
72924;SDS011;61070;50.794;7.054;2023-03-16T00:37:03;14.88;;;6.28;;
72924;SDS011;61070;50.794;7.054;2023-03-16T00:39:28;14.80;;;5.53;;
72924;SDS011;61070;50.794;7.054;2023-03-16T00:41:54;10.85;;;5.55;;
72924;SDS011;61070;50.794;7.054;2023-03-16T00:44:22;10.95;;;4.43;;
72924;SDS011;61070;50.794;7.054;2023-03-16T00:46:48;8.45;;;4.70;;
72924;SDS011;61070;50.794;7.054;2023-03-16T00:49:13;11.55;;;4.72;;
72924;SDS011;61070;50.794;7.054;2023-03-16T00:51:38;15.80;;;5.05;;
72924;SDS011;61070;50.794;7.054;2023-03-16T00:54:03;10.43;;;4.40;;
72924;SDS011;61070;50.794;7.054;2023-03-16T00:56:29;10.07;;;4.50;;
72924;SDS011;61070;50.794;7.054;2023-03-16T00:58:55;10.98;;;4.63;;
72924;SDS011;61070;50.794;7.054;2023-03-16T01:01:21;13.88;;;4.72;;
72924;SDS011;61070;50.794;7.054;2023-03-16T01:03:47;11.18;;;4.50;;
72924;SDS011;61070;50.794;7.054;2023-03-16T01:06:13;8.80;;;4.35;;
72924;SDS011;61070;50.794;7.054;2023-03-16T01:08:41;8.40;;;3.90;;
72924;SDS011;61070;50.794;7.054;2023-03-16T01:11:08;7.97;;;4.32;;
72924;SDS011;61070;50.794;7.054;2023-03-16T01:13:36;10.20;;;4.30;;
72924;SDS011;61070;50.794;7.054;2023-03-16T01:16:02;7.03;;;3.50;;
72924;SDS011;61070;50.794;7.054;2023-03-16T01:18:28;7.78;;;3.70;;
72924;SDS011;61070;50.794;7.054;2023-03-16T01:20:58;7.38;;;3.80;;
72924;SDS011;61070;50.794;7.054;2023-03-16T01:23:23;15.75;;;3.70;;
72924;SDS011;61070;50.794;7.054;2023-03-16T01:25:49;10.90;;;4.25;;
72924;SDS011;61070;50.794;7.054;2023-03-16T01:28:19;7.55;;;3.60;;
72924;SDS011;61070;50.794;7.054;2023-03-16T01:30:45;14.38;;;3.88;;
72924;SDS011;61070;50.794;7.054;2023-03-16T01:33:11;8.05;;;3.75;;
72924;SDS011;61070;50.794;7.054;2023-03-16T01:35:37;9.25;;;4.15;;
72924;SDS011;61070;50.794;7.054;2023-03-16T01:38:02;11.23;;;4.00;;
72924;SDS011;61070;50.794;7.054;2023-03-16T01:40:28;8.75;;;3.83;;
72924;SDS011;61070;50.794;7.054;2023-03-16T01:42:59;9.13;;;3.60;;
72924;SDS011;61070;50.794;7.054;2023-03-16T01:49:17;5.75;;;2.92;;
72924;SDS011;61070;50.794;7.054;2023-03-16T01:54:03;7.80;;;3.28;;
72924;SDS011;61070;50.794;7.054;2023-03-16T01:56:40;9.90;;;3.80;;
72924;SDS011;61070;50.794;7.054;2023-03-16T01:59:12;7.18;;;3.03;;
72924;SDS011;61070;50.794;7.054;2023-03-16T02:01:40;5.88;;;3.08;;
72924;SDS011;61070;50.794;7.054;2023-03-16T02:04:11;8.30;;;3.33;;
72924;SDS011;61070;50.794;7.054;2023-03-16T02:06:44;5.68;;;3.00;;
72924;SDS011;61070;50.794;7.054;2023-03-16T02:09:11;15.27;;;3.90;;
72924;SDS011;61070;50.794;7.054;2023-03-16T02:11:36;8.57;;;3.33;;
72924;SDS011;61070;50.794;7.054;2023-03-16T02:14:03;7.22;;;3.45;;
72924;SDS011;61070;50.794;7.054;2023-03-16T02:16:33;6.63;;;2.97;;
72924;SDS011;61070;50.794;7.054;2023-03-16T02:18:58;7.50;;;3.38;;
72924;SDS011;61070;50.794;7.054;2023-03-16T02:23:49;9.15;;;3.33;;
72924;SDS011;61070;50.794;7.054;2023-03-16T02:29:43;6.85;;;3.17;;
72924;SDS011;61070;50.794;7.054;2023-03-16T02:32:16;8.88;;;3.50;;
72924;SDS011;61070;50.794;7.054;2023-03-16T02:34:43;6.72;;;3.13;;
72924;SDS011;61070;50.794;7.054;2023-03-16T02:37:08;9.45;;;2.88;;
72924;SDS011;61070;50.794;7.054;2023-03-16T02:39:35;9.10;;;2.72;;
72924;SDS011;61070;50.794;7.054;2023-03-16T02:42:01;4.30;;;2.35;;
72924;SDS011;61070;50.794;7.054;2023-03-16T02:44:28;6.18;;;2.97;;
72924;SDS011;61070;50.794;7.054;2023-03-16T02:46:59;8.95;;;2.90;;
72924;SDS011;61070;50.794;7.054;2023-03-16T02:49:35;10.85;;;2.90;;
72924;SDS011;61070;50.794;7.054;2023-03-16T02:52:03;6.05;;;2.38;;
72924;SDS011;61070;50.794;7.054;2023-03-16T02:54:30;4.78;;;2.60;;
72924;SDS011;61070;50.794;7.054;2023-03-16T02:56:55;6.28;;;2.92;;
72924;SDS011;61070;50.794;7.054;2023-03-16T02:59:20;7.18;;;3.50;;
72924;SDS011;61070;50.794;7.054;2023-03-16T03:01:45;5.57;;;3.45;;
72924;SDS011;61070;50.794;7.054;2023-03-16T03:04:11;7.82;;;3.08;;
72924;SDS011;61070;50.794;7.054;2023-03-16T03:06:38;5.13;;;2.63;;
72924;SDS011;61070;50.794;7.054;2023-03-16T03:09:05;5.43;;;2.85;;
72924;SDS011;61070;50.794;7.054;2023-03-16T03:11:31;5.97;;;3.28;;
72924;SDS011;61070;50.794;7.054;2023-03-16T03:13:56;7.32;;;2.78;;
72924;SDS011;61070;50.794;7.054;2023-03-16T03:16:22;7.40;;;3.92;;
72924;SDS011;61070;50.794;7.054;2023-03-16T03:18:47;7.45;;;3.38;;
72924;SDS011;61070;50.794;7.054;2023-03-16T03:21:13;12.23;;;4.05;;
72924;SDS011;61070;50.794;7.054;2023-03-16T03:23:39;14.77;;;3.63;;
72924;SDS011;61070;50.794;7.054;2023-03-16T03:26:04;8.30;;;3.80;;
72924;SDS011;61070;50.794;7.054;2023-03-16T03:28:30;8.38;;;4.07;;
72924;SDS011;61070;50.794;7.054;2023-03-16T03:30:58;9.25;;;3.92;;
72924;SDS011;61070;50.794;7.054;2023-03-16T03:33:23;8.85;;;3.25;;
72924;SDS011;61070;50.794;7.054;2023-03-16T03:35:52;7.45;;;2.90;;
72924;SDS011;61070;50.794;7.054;2023-03-16T03:40:44;10.75;;;3.65;;
72924;SDS011;61070;50.794;7.054;2023-03-16T03:43:13;12.18;;;4.05;;
72924;SDS011;61070;50.794;7.054;2023-03-16T03:45:39;11.48;;;3.28;;
72924;SDS011;61070;50.794;7.054;2023-03-16T03:48:04;8.70;;;3.28;;
72924;SDS011;61070;50.794;7.054;2023-03-16T03:50:29;8.00;;;3.40;;
72924;SDS011;61070;50.794;7.054;2023-03-16T03:52:55;5.07;;;3.28;;
72924;SDS011;61070;50.794;7.054;2023-03-16T03:55:20;5.43;;;3.22;;
72924;SDS011;61070;50.794;7.054;2023-03-16T03:57:45;9.40;;;2.95;;
72924;SDS011;61070;50.794;7.054;2023-03-16T04:00:10;9.43;;;3.70;;
72924;SDS011;61070;50.794;7.054;2023-03-16T04:02:37;7.07;;;3.00;;
72924;SDS011;61070;50.794;7.054;2023-03-16T04:05:03;5.47;;;3.00;;
72924;SDS011;61070;50.794;7.054;2023-03-16T04:07:29;6.30;;;2.97;;
72924;SDS011;61070;50.794;7.054;2023-03-16T04:09:55;7.60;;;3.30;;
72924;SDS011;61070;50.794;7.054;2023-03-16T04:12:20;7.20;;;3.42;;
72924;SDS011;61070;50.794;7.054;2023-03-16T04:14:46;6.65;;;4.00;;
72924;SDS011;61070;50.794;7.054;2023-03-16T04:17:11;5.60;;;3.00;;
72924;SDS011;61070;50.794;7.054;2023-03-16T04:19:37;6.53;;;3.13;;
72924;SDS011;61070;50.794;7.054;2023-03-16T04:22:03;9.52;;;3.25;;
72924;SDS011;61070;50.794;7.054;2023-03-16T04:24:28;8.38;;;3.60;;
72924;SDS011;61070;50.794;7.054;2023-03-16T04:26:53;6.53;;;3.33;;
72924;SDS011;61070;50.794;7.054;2023-03-16T04:29:19;6.25;;;3.72;;
72924;SDS011;61070;50.794;7.054;2023-03-16T04:31:44;7.65;;;3.58;;
72924;SDS011;61070;50.794;7.054;2023-03-16T04:34:10;8.40;;;3.55;;
72924;SDS011;61070;50.794;7.054;2023-03-16T04:36:36;9.93;;;4.30;;
72924;SDS011;61070;50.794;7.054;2023-03-16T04:39:03;7.75;;;4.15;;
72924;SDS011;61070;50.794;7.054;2023-03-16T04:41:28;7.18;;;4.03;;
72924;SDS011;61070;50.794;7.054;2023-03-16T04:43:54;11.90;;;4.18;;
72924;SDS011;61070;50.794;7.054;2023-03-16T04:46:21;5.70;;;3.33;;
72924;SDS011;61070;50.794;7.054;2023-03-16T04:48:47;10.32;;;4.18;;
72924;SDS011;61070;50.794;7.054;2023-03-16T04:51:12;9.27;;;4.53;;
72924;SDS011;61070;50.794;7.054;2023-03-16T04:53:38;9.18;;;4.53;;
72924;SDS011;61070;50.794;7.054;2023-03-16T04:56:03;7.20;;;3.97;;
72924;SDS011;61070;50.794;7.054;2023-03-16T04:58:29;9.18;;;4.53;;
72924;SDS011;61070;50.794;7.054;2023-03-16T05:00:54;9.75;;;4.85;;
72924;SDS011;61070;50.794;7.054;2023-03-16T05:03:19;11.68;;;4.43;;
72924;SDS011;61070;50.794;7.054;2023-03-16T05:05:46;9.27;;;4.43;;
72924;SDS011;61070;50.794;7.054;2023-03-16T05:08:12;10.60;;;4.07;;
72924;SDS011;61070;50.794;7.054;2023-03-16T05:10:37;7.38;;;3.88;;
72924;SDS011;61070;50.794;7.054;2023-03-16T05:13:03;8.70;;;4.65;;
72924;SDS011;61070;50.794;7.054;2023-03-16T05:15:29;11.02;;;3.85;;
72924;SDS011;61070;50.794;7.054;2023-03-16T05:17:54;11.07;;;4.30;;
72924;SDS011;61070;50.794;7.054;2023-03-16T05:20:20;10.10;;;4.35;;
72924;SDS011;61070;50.794;7.054;2023-03-16T05:22:46;7.90;;;4.18;;
72924;SDS011;61070;50.794;7.054;2023-03-16T05:25:12;9.95;;;4.95;;
72924;SDS011;61070;50.794;7.054;2023-03-16T05:27:46;10.80;;;4.95;;
72924;SDS011;61070;50.794;7.054;2023-03-16T05:30:13;10.90;;;4.72;;
72924;SDS011;61070;50.794;7.054;2023-03-16T05:32:42;9.90;;;5.17;;
72924;SDS011;61070;50.794;7.054;2023-03-16T05:35:09;10.55;;;4.10;;
72924;SDS011;61070;50.794;7.054;2023-03-16T05:37:37;7.88;;;4.40;;
72924;SDS011;61070;50.794;7.054;2023-03-16T05:40:04;8.68;;;3.85;;
72924;SDS011;61070;50.794;7.054;2023-03-16T05:42:47;10.10;;;4.22;;
72924;SDS011;61070;50.794;7.054;2023-03-16T05:45:14;11.77;;;4.88;;
72924;SDS011;61070;50.794;7.054;2023-03-16T05:47:40;9.23;;;5.00;;
72924;SDS011;61070;50.794;7.054;2023-03-16T05:50:07;13.10;;;4.93;;
72924;SDS011;61070;50.794;7.054;2023-03-16T05:52:35;11.13;;;4.72;;
72924;SDS011;61070;50.794;7.054;2023-03-16T05:55:01;10.25;;;4.88;;
72924;SDS011;61070;50.794;7.054;2023-03-16T05:57:26;14.00;;;5.13;;
72924;SDS011;61070;50.794;7.054;2023-03-16T05:59:52;8.48;;;5.03;;
72924;SDS011;61070;50.794;7.054;2023-03-16T06:02:17;7.10;;;4.65;;
72924;SDS011;61070;50.794;7.054;2023-03-16T06:04:42;8.43;;;4.57;;
72924;SDS011;61070;50.794;7.054;2023-03-16T06:07:07;9.48;;;4.68;;
72924;SDS011;61070;50.794;7.054;2023-03-16T06:09:33;10.02;;;4.75;;
72924;SDS011;61070;50.794;7.054;2023-03-16T06:11:58;8.95;;;4.95;;
72924;SDS011;61070;50.794;7.054;2023-03-16T06:14:24;11.23;;;5.13;;
72924;SDS011;61070;50.794;7.054;2023-03-16T06:16:49;12.00;;;6.45;;
72924;SDS011;61070;50.794;7.054;2023-03-16T06:19:15;8.63;;;5.03;;
72924;SDS011;61070;50.794;7.054;2023-03-16T06:21:40;10.57;;;5.22;;
72924;SDS011;61070;50.794;7.054;2023-03-16T06:24:06;11.70;;;5.13;;
72924;SDS011;61070;50.794;7.054;2023-03-16T06:26:33;14.07;;;4.95;;
72924;SDS011;61070;50.794;7.054;2023-03-16T06:28:59;16.05;;;5.32;;
72924;SDS011;61070;50.794;7.054;2023-03-16T06:31:24;12.02;;;4.90;;
72924;SDS011;61070;50.794;7.054;2023-03-16T06:33:49;9.45;;;4.93;;
72924;SDS011;61070;50.794;7.054;2023-03-16T06:36:15;10.35;;;5.03;;
72924;SDS011;61070;50.794;7.054;2023-03-16T06:38:40;9.75;;;5.28;;
72924;SDS011;61070;50.794;7.054;2023-03-16T06:41:06;13.48;;;5.00;;
72924;SDS011;61070;50.794;7.054;2023-03-16T06:43:31;11.95;;;5.43;;
72924;SDS011;61070;50.794;7.054;2023-03-16T06:45:57;9.80;;;5.20;;
72924;SDS011;61070;50.794;7.054;2023-03-16T06:48:22;13.25;;;4.72;;
72924;SDS011;61070;50.794;7.054;2023-03-16T06:50:48;9.48;;;4.25;;
72924;SDS011;61070;50.794;7.054;2023-03-16T06:53:13;14.70;;;5.30;;
72924;SDS011;61070;50.794;7.054;2023-03-16T06:55:39;12.45;;;4.78;;
72924;SDS011;61070;50.794;7.054;2023-03-16T06:58:05;10.75;;;5.40;;
72924;SDS011;61070;50.794;7.054;2023-03-16T07:00:31;9.80;;;5.07;;
72924;SDS011;61070;50.794;7.054;2023-03-16T07:02:57;8.18;;;4.65;;
72924;SDS011;61070;50.794;7.054;2023-03-16T07:05:24;12.02;;;5.35;;
72924;SDS011;61070;50.794;7.054;2023-03-16T07:07:49;10.40;;;5.95;;
72924;SDS011;61070;50.794;7.054;2023-03-16T07:10:15;8.15;;;5.40;;
72924;SDS011;61070;50.794;7.054;2023-03-16T07:12:42;10.82;;;4.78;;
72924;SDS011;61070;50.794;7.054;2023-03-16T07:15:08;12.27;;;4.88;;
72924;SDS011;61070;50.794;7.054;2023-03-16T07:17:34;10.77;;;5.55;;
72924;SDS011;61070;50.794;7.054;2023-03-16T07:20:00;11.48;;;5.30;;
72924;SDS011;61070;50.794;7.054;2023-03-16T07:22:29;13.93;;;5.55;;
72924;SDS011;61070;50.794;7.054;2023-03-16T07:24:56;10.95;;;5.07;;
72924;SDS011;61070;50.794;7.054;2023-03-16T07:27:22;9.77;;;5.75;;
72924;SDS011;61070;50.794;7.054;2023-03-16T07:29:50;9.32;;;5.13;;
72924;SDS011;61070;50.794;7.054;2023-03-16T07:32:18;11.32;;;5.55;;
72924;SDS011;61070;50.794;7.054;2023-03-16T07:34:44;10.85;;;4.95;;
72924;SDS011;61070;50.794;7.054;2023-03-16T07:37:10;11.82;;;5.82;;
72924;SDS011;61070;50.794;7.054;2023-03-16T07:39:35;8.52;;;4.72;;
72924;SDS011;61070;50.794;7.054;2023-03-16T07:42:01;8.60;;;4.90;;
72924;SDS011;61070;50.794;7.054;2023-03-16T07:44:26;9.63;;;5.10;;
72924;SDS011;61070;50.794;7.054;2023-03-16T07:46:52;10.23;;;5.22;;
72924;SDS011;61070;50.794;7.054;2023-03-16T07:49:17;12.18;;;5.25;;
72924;SDS011;61070;50.794;7.054;2023-03-16T07:51:43;6.55;;;4.20;;
72924;SDS011;61070;50.794;7.054;2023-03-16T07:54:08;10.23;;;4.40;;
72924;SDS011;61070;50.794;7.054;2023-03-16T07:56:33;17.73;;;6.13;;
72924;SDS011;61070;50.794;7.054;2023-03-16T07:58:59;12.55;;;5.18;;
72924;SDS011;61070;50.794;7.054;2023-03-16T08:01:24;7.50;;;4.85;;
72924;SDS011;61070;50.794;7.054;2023-03-16T08:03:49;8.35;;;4.93;;
72924;SDS011;61070;50.794;7.054;2023-03-16T08:06:14;9.52;;;5.10;;
72924;SDS011;61070;50.794;7.054;2023-03-16T08:08:40;7.95;;;4.82;;
72924;SDS011;61070;50.794;7.054;2023-03-16T08:11:05;8.20;;;4.75;;
72924;SDS011;61070;50.794;7.054;2023-03-16T08:13:30;8.15;;;5.00;;
72924;SDS011;61070;50.794;7.054;2023-03-16T08:15:55;12.85;;;4.95;;
72924;SDS011;61070;50.794;7.054;2023-03-16T08:18:26;10.52;;;5.82;;
72924;SDS011;61070;50.794;7.054;2023-03-16T08:20:54;9.30;;;4.70;;
72924;SDS011;61070;50.794;7.054;2023-03-16T08:23:20;10.38;;;5.03;;
72924;SDS011;61070;50.794;7.054;2023-03-16T08:25:46;12.27;;;5.68;;
72924;SDS011;61070;50.794;7.054;2023-03-16T08:28:16;8.93;;;5.32;;
72924;SDS011;61070;50.794;7.054;2023-03-16T08:30:46;12.80;;;5.38;;
72924;SDS011;61070;50.794;7.054;2023-03-16T08:33:12;11.00;;;5.53;;
72924;SDS011;61070;50.794;7.054;2023-03-16T08:35:43;7.40;;;4.43;;
72924;SDS011;61070;50.794;7.054;2023-03-16T08:38:08;8.02;;;5.05;;
72924;SDS011;61070;50.794;7.054;2023-03-16T08:40:35;8.50;;;5.07;;
72924;SDS011;61070;50.794;7.054;2023-03-16T08:43:00;11.73;;;6.25;;
72924;SDS011;61070;50.794;7.054;2023-03-16T08:45:26;11.05;;;5.20;;
72924;SDS011;61070;50.794;7.054;2023-03-16T08:47:52;8.65;;;4.40;;
72924;SDS011;61070;50.794;7.054;2023-03-16T08:50:18;15.23;;;6.30;;
72924;SDS011;61070;50.794;7.054;2023-03-16T08:52:43;10.45;;;5.80;;
72924;SDS011;61070;50.794;7.054;2023-03-16T08:55:09;15.40;;;6.28;;
72924;SDS011;61070;50.794;7.054;2023-03-16T08:57:35;12.82;;;6.40;;
72924;SDS011;61070;50.794;7.054;2023-03-16T09:00:01;11.82;;;6.07;;
72924;SDS011;61070;50.794;7.054;2023-03-16T09:02:36;9.15;;;5.30;;
72924;SDS011;61070;50.794;7.054;2023-03-16T09:05:02;12.90;;;5.68;;
72924;SDS011;61070;50.794;7.054;2023-03-16T09:07:28;11.02;;;6.18;;
72924;SDS011;61070;50.794;7.054;2023-03-16T09:09:54;8.50;;;6.20;;
72924;SDS011;61070;50.794;7.054;2023-03-16T09:12:19;13.60;;;5.57;;
72924;SDS011;61070;50.794;7.054;2023-03-16T09:14:46;10.50;;;6.10;;
72924;SDS011;61070;50.794;7.054;2023-03-16T09:17:12;10.20;;;6.47;;
72924;SDS011;61070;50.794;7.054;2023-03-16T09:19:38;10.82;;;5.50;;
72924;SDS011;61070;50.794;7.054;2023-03-16T09:22:04;8.90;;;5.60;;
72924;SDS011;61070;50.794;7.054;2023-03-16T09:24:30;9.10;;;5.80;;
72924;SDS011;61070;50.794;7.054;2023-03-16T09:26:56;9.98;;;6.00;;
72924;SDS011;61070;50.794;7.054;2023-03-16T09:29:21;10.88;;;6.85;;
72924;SDS011;61070;50.794;7.054;2023-03-16T09:31:47;12.10;;;6.55;;
72924;SDS011;61070;50.794;7.054;2023-03-16T09:34:13;11.15;;;6.25;;
72924;SDS011;61070;50.794;7.054;2023-03-16T09:36:38;8.88;;;6.28;;
72924;SDS011;61070;50.794;7.054;2023-03-16T09:39:04;12.00;;;5.72;;
72924;SDS011;61070;50.794;7.054;2023-03-16T09:41:47;11.23;;;6.28;;
72924;SDS011;61070;50.794;7.054;2023-03-16T09:47:23;11.63;;;6.45;;
72924;SDS011;61070;50.794;7.054;2023-03-16T09:49:52;9.23;;;5.22;;
72924;SDS011;61070;50.794;7.054;2023-03-16T09:55:42;9.30;;;5.40;;
72924;SDS011;61070;50.794;7.054;2023-03-16T09:58:03;11.20;;;5.63;;
72924;SDS011;61070;50.794;7.054;2023-03-16T10:00:43;10.70;;;6.00;;
72924;SDS011;61070;50.794;7.054;2023-03-16T10:05:53;11.40;;;5.72;;
72924;SDS011;61070;50.794;7.054;2023-03-16T10:08:24;10.65;;;6.15;;
72924;SDS011;61070;50.794;7.054;2023-03-16T10:11:10;12.48;;;6.03;;
72924;SDS011;61070;50.794;7.054;2023-03-16T10:14:14;12.45;;;5.53;;
72924;SDS011;61070;50.794;7.054;2023-03-16T10:16:50;8.75;;;5.70;;
72924;SDS011;61070;50.794;7.054;2023-03-16T10:19:24;11.43;;;5.97;;
72924;SDS011;61070;50.794;7.054;2023-03-16T10:21:56;14.73;;;5.95;;
72924;SDS011;61070;50.794;7.054;2023-03-16T10:27:26;12.05;;;6.07;;
72924;SDS011;61070;50.794;7.054;2023-03-16T10:29:54;12.70;;;5.90;;
72924;SDS011;61070;50.794;7.054;2023-03-16T10:32:20;11.70;;;5.93;;
72924;SDS011;61070;50.794;7.054;2023-03-16T10:34:52;9.18;;;5.57;;
72924;SDS011;61070;50.794;7.054;2023-03-16T10:37:22;10.95;;;6.45;;
72924;SDS011;61070;50.794;7.054;2023-03-16T10:39:48;11.15;;;5.55;;
72924;SDS011;61070;50.794;7.054;2023-03-16T10:42:18;11.30;;;5.55;;
72924;SDS011;61070;50.794;7.054;2023-03-16T10:44:45;12.20;;;6.40;;
72924;SDS011;61070;50.794;7.054;2023-03-16T10:47:15;12.88;;;6.20;;
72924;SDS011;61070;50.794;7.054;2023-03-16T10:49:43;12.25;;;6.30;;
72924;SDS011;61070;50.794;7.054;2023-03-16T10:54:55;9.80;;;5.30;;
72924;SDS011;61070;50.794;7.054;2023-03-16T10:57:23;11.20;;;5.20;;
72924;SDS011;61070;50.794;7.054;2023-03-16T10:59:51;12.15;;;5.57;;
72924;SDS011;61070;50.794;7.054;2023-03-16T11:02:30;10.25;;;6.00;;
72924;SDS011;61070;50.794;7.054;2023-03-16T11:04:57;8.30;;;5.18;;
72924;SDS011;61070;50.794;7.054;2023-03-16T11:07:22;12.23;;;5.00;;
72924;SDS011;61070;50.794;7.054;2023-03-16T11:09:49;11.75;;;5.70;;
72924;SDS011;61070;50.794;7.054;2023-03-16T11:12:23;10.85;;;5.25;;
72924;SDS011;61070;50.794;7.054;2023-03-16T11:14:51;9.25;;;5.20;;
72924;SDS011;61070;50.794;7.054;2023-03-16T11:17:20;11.02;;;5.30;;
72924;SDS011;61070;50.794;7.054;2023-03-16T11:19:59;6.80;;;4.20;;
72924;SDS011;61070;50.794;7.054;2023-03-16T11:22:38;11.93;;;5.10;;
72924;SDS011;61070;50.794;7.054;2023-03-16T11:25:16;11.60;;;5.03;;
72924;SDS011;61070;50.794;7.054;2023-03-16T11:27:52;8.02;;;4.18;;
72924;SDS011;61070;50.794;7.054;2023-03-16T11:30:45;11.07;;;4.50;;
72924;SDS011;61070;50.794;7.054;2023-03-16T11:33:15;12.90;;;3.60;;
72924;SDS011;61070;50.794;7.054;2023-03-16T11:41:07;10.40;;;4.63;;
72924;SDS011;61070;50.794;7.054;2023-03-16T11:46:12;6.97;;;4.07;;
72924;SDS011;61070;50.794;7.054;2023-03-16T11:51:58;9.18;;;3.95;;
72924;SDS011;61070;50.794;7.054;2023-03-16T12:02:43;12.27;;;3.42;;
72924;SDS011;61070;50.794;7.054;2023-03-16T12:05:34;7.53;;;3.15;;
72924;SDS011;61070;50.794;7.054;2023-03-16T12:08:15;5.45;;;3.40;;
72924;SDS011;61070;50.794;7.054;2023-03-16T12:10:54;8.57;;;3.90;;
72924;SDS011;61070;50.794;7.054;2023-03-16T12:13:36;7.90;;;3.22;;
72924;SDS011;61070;50.794;7.054;2023-03-16T12:16:20;10.90;;;3.15;;
72924;SDS011;61070;50.794;7.054;2023-03-16T12:18:51;11.32;;;4.00;;
72924;SDS011;61070;50.794;7.054;2023-03-16T12:24:09;9.65;;;3.55;;
72924;SDS011;61070;50.794;7.054;2023-03-16T12:26:41;5.68;;;3.08;;
72924;SDS011;61070;50.794;7.054;2023-03-16T12:29:17;6.82;;;3.03;;
72924;SDS011;61070;50.794;7.054;2023-03-16T12:31:53;8.20;;;3.67;;
72924;SDS011;61070;50.794;7.054;2023-03-16T12:34:35;7.63;;;3.13;;
72924;SDS011;61070;50.794;7.054;2023-03-16T12:37:14;5.97;;;3.38;;
72924;SDS011;61070;50.794;7.054;2023-03-16T12:43:17;7.10;;;2.63;;
72924;SDS011;61070;50.794;7.054;2023-03-16T12:46:51;7.65;;;2.83;;
72924;SDS011;61070;50.794;7.054;2023-03-16T12:49:05;6.35;;;2.55;;
72924;SDS011;61070;50.794;7.054;2023-03-16T12:51:38;7.93;;;3.10;;
72924;SDS011;61070;50.794;7.054;2023-03-16T12:54:05;7.10;;;3.25;;
72924;SDS011;61070;50.794;7.054;2023-03-16T12:56:43;3.72;;;2.13;;
72924;SDS011;61070;50.794;7.054;2023-03-16T12:59:17;9.57;;;2.75;;
72924;SDS011;61070;50.794;7.054;2023-03-16T13:01:50;4.25;;;2.50;;
72924;SDS011;61070;50.794;7.054;2023-03-16T13:04:21;4.63;;;2.30;;
72924;SDS011;61070;50.794;7.054;2023-03-16T13:07:00;4.75;;;2.60;;
72924;SDS011;61070;50.794;7.054;2023-03-16T13:09:29;4.43;;;2.13;;
72924;SDS011;61070;50.794;7.054;2023-03-16T13:11:58;4.55;;;2.33;;
72924;SDS011;61070;50.794;7.054;2023-03-16T13:14:31;9.15;;;2.63;;
72924;SDS011;61070;50.794;7.054;2023-03-16T13:17:03;10.57;;;2.42;;
72924;SDS011;61070;50.794;7.054;2023-03-16T13:19:30;4.38;;;2.15;;
72924;SDS011;61070;50.794;7.054;2023-03-16T13:25:33;2.97;;;1.60;;
72924;SDS011;61070;50.794;7.054;2023-03-16T13:27:42;7.05;;;2.30;;
72924;SDS011;61070;50.794;7.054;2023-03-16T13:30:22;11.10;;;2.30;;
72924;SDS011;61070;50.794;7.054;2023-03-16T13:32:52;7.70;;;2.33;;
72924;SDS011;61070;50.794;7.054;2023-03-16T13:35:20;4.60;;;1.90;;
72924;SDS011;61070;50.794;7.054;2023-03-16T13:37:51;6.78;;;2.10;;
72924;SDS011;61070;50.794;7.054;2023-03-16T13:40:24;4.32;;;2.10;;
72924;SDS011;61070;50.794;7.054;2023-03-16T13:42:51;7.40;;;3.13;;
72924;SDS011;61070;50.794;7.054;2023-03-16T13:45:40;11.18;;;2.67;;
72924;SDS011;61070;50.794;7.054;2023-03-16T13:48:05;5.85;;;2.63;;
72924;SDS011;61070;50.794;7.054;2023-03-16T13:50:33;4.82;;;2.08;;
72924;SDS011;61070;50.794;7.054;2023-03-16T13:53:03;4.30;;;2.30;;
72924;SDS011;61070;50.794;7.054;2023-03-16T13:55:38;7.22;;;2.25;;
72924;SDS011;61070;50.794;7.054;2023-03-16T13:58:04;6.28;;;2.72;;
72924;SDS011;61070;50.794;7.054;2023-03-16T14:00:30;9.40;;;2.47;;
72924;SDS011;61070;50.794;7.054;2023-03-16T14:02:59;5.18;;;2.83;;
72924;SDS011;61070;50.794;7.054;2023-03-16T14:05:38;6.10;;;2.80;;
72924;SDS011;61070;50.794;7.054;2023-03-16T14:08:11;4.47;;;2.20;;
72924;SDS011;61070;50.794;7.054;2023-03-16T14:10:39;9.13;;;2.60;;
72924;SDS011;61070;50.794;7.054;2023-03-16T14:13:51;4.35;;;2.20;;
72924;SDS011;61070;50.794;7.054;2023-03-16T14:15:52;6.50;;;2.72;;
72924;SDS011;61070;50.794;7.054;2023-03-16T14:18:19;7.75;;;2.22;;
72924;SDS011;61070;50.794;7.054;2023-03-16T14:20:52;4.90;;;2.33;;
72924;SDS011;61070;50.794;7.054;2023-03-16T14:23:20;4.63;;;2.05;;
72924;SDS011;61070;50.794;7.054;2023-03-16T14:25:48;7.35;;;2.33;;
72924;SDS011;61070;50.794;7.054;2023-03-16T14:28:15;13.90;;;2.60;;
72924;SDS011;61070;50.794;7.054;2023-03-16T14:30:50;3.88;;;2.20;;
72924;SDS011;61070;50.794;7.054;2023-03-16T14:33:30;6.72;;;2.45;;
72924;SDS011;61070;50.794;7.054;2023-03-16T14:35:58;4.97;;;2.05;;
72924;SDS011;61070;50.794;7.054;2023-03-16T14:38:32;4.07;;;2.15;;
72924;SDS011;61070;50.794;7.054;2023-03-16T14:41:04;4.80;;;2.13;;
72924;SDS011;61070;50.794;7.054;2023-03-16T14:43:36;4.70;;;2.45;;
72924;SDS011;61070;50.794;7.054;2023-03-16T14:46:10;3.13;;;2.05;;
72924;SDS011;61070;50.794;7.054;2023-03-16T14:48:39;3.67;;;2.28;;
72924;SDS011;61070;50.794;7.054;2023-03-16T14:51:05;5.47;;;2.78;;
72924;SDS011;61070;50.794;7.054;2023-03-16T14:53:37;5.28;;;2.17;;
72924;SDS011;61070;50.794;7.054;2023-03-16T14:56:02;8.55;;;2.60;;
72924;SDS011;61070;50.794;7.054;2023-03-16T14:58:28;4.55;;;2.22;;
72924;SDS011;61070;50.794;7.054;2023-03-16T15:00:53;4.93;;;2.40;;
72924;SDS011;61070;50.794;7.054;2023-03-16T15:03:20;5.95;;;2.45;;
72924;SDS011;61070;50.794;7.054;2023-03-16T15:05:49;4.30;;;2.50;;
72924;SDS011;61070;50.794;7.054;2023-03-16T15:08:22;4.13;;;2.70;;
72924;SDS011;61070;50.794;7.054;2023-03-16T15:10:52;11.43;;;2.35;;
72924;SDS011;61070;50.794;7.054;2023-03-16T15:13:21;6.07;;;3.08;;
72924;SDS011;61070;50.794;7.054;2023-03-16T15:16:09;4.88;;;2.45;;
72924;SDS011;61070;50.794;7.054;2023-03-16T15:18:36;7.15;;;2.92;;
72924;SDS011;61070;50.794;7.054;2023-03-16T15:21:04;5.10;;;2.42;;
72924;SDS011;61070;50.794;7.054;2023-03-16T15:23:36;9.25;;;2.78;;
72924;SDS011;61070;50.794;7.054;2023-03-16T15:26:02;9.48;;;2.90;;
72924;SDS011;61070;50.794;7.054;2023-03-16T15:28:29;10.07;;;2.92;;
72924;SDS011;61070;50.794;7.054;2023-03-16T15:30:56;4.72;;;3.17;;
72924;SDS011;61070;50.794;7.054;2023-03-16T15:33:23;8.70;;;3.47;;
72924;SDS011;61070;50.794;7.054;2023-03-16T15:35:49;4.95;;;3.17;;
72924;SDS011;61070;50.794;7.054;2023-03-16T15:38:23;7.28;;;3.80;;
72924;SDS011;61070;50.794;7.054;2023-03-16T15:40:51;6.50;;;3.42;;
72924;SDS011;61070;50.794;7.054;2023-03-16T15:43:21;8.98;;;3.58;;
72924;SDS011;61070;50.794;7.054;2023-03-16T15:45:51;6.72;;;3.10;;
72924;SDS011;61070;50.794;7.054;2023-03-16T15:48:18;6.78;;;3.58;;